sensor_id;sensor_type;location;lat;lon;timestamp;pressure;altitude;pressure_sealevel;temperature;humidity
35307;BME280;21420;52.196;21.416;2024-03-02T00:01:15;100016.84;;;6.39;70.88
35307;BME280;21420;52.196;21.416;2024-03-02T00:03:42;100017.83;;;6.37;70.84
35307;BME280;21420;52.196;21.416;2024-03-02T00:06:10;100023.86;;;6.33;70.82
35307;BME280;21420;52.196;21.416;2024-03-02T00:08:37;100020.56;;;6.31;70.91
35307;BME280;21420;52.196;21.416;2024-03-02T00:11:04;100020.24;;;6.29;70.93
35307;BME280;21420;52.196;21.416;2024-03-02T00:13:31;100016.67;;;6.26;70.90
35307;BME280;21420;52.196;21.416;2024-03-02T00:15:59;100015.42;;;6.24;70.95
35307;BME280;21420;52.196;21.416;2024-03-02T00:18:30;100017.94;;;6.23;71.06
35307;BME280;21420;52.196;21.416;2024-03-02T00:20:58;100016.50;;;6.22;71.09
35307;BME280;21420;52.196;21.416;2024-03-02T00:23:29;100009.21;;;6.21;71.14
35307;BME280;21420;52.196;21.416;2024-03-02T00:25:57;100002.65;;;6.18;71.02
35307;BME280;21420;52.196;21.416;2024-03-02T00:28:27;99998.61;;;6.17;71.11
35307;BME280;21420;52.196;21.416;2024-03-02T00:30:59;99999.98;;;6.15;71.02
35307;BME280;21420;52.196;21.416;2024-03-02T00:33:30;100005.38;;;6.12;71.05
35307;BME280;21420;52.196;21.416;2024-03-02T00:35:58;100007.05;;;6.10;70.97
35307;BME280;21420;52.196;21.416;2024-03-02T00:38:27;100005.72;;;6.08;71.04
35307;BME280;21420;52.196;21.416;2024-03-02T00:40:54;100004.02;;;6.06;71.11
35307;BME280;21420;52.196;21.416;2024-03-02T00:43:57;100005.64;;;6.04;71.14
35307;BME280;21420;52.196;21.416;2024-03-02T00:46:25;100001.28;;;6.01;70.97
35307;BME280;21420;52.196;21.416;2024-03-02T00:49:00;100000.38;;;5.99;71.06
35307;BME280;21420;52.196;21.416;2024-03-02T00:51:32;99996.96;;;5.96;71.23
35307;BME280;21420;52.196;21.416;2024-03-02T00:54:05;99996.98;;;5.95;71.09
35307;BME280;21420;52.196;21.416;2024-03-02T00:56:33;100001.46;;;5.93;71.29
35307;BME280;21420;52.196;21.416;2024-03-02T00:59:02;99994.84;;;5.91;71.17
35307;BME280;21420;52.196;21.416;2024-03-02T01:01:28;99996.69;;;5.89;71.15
35307;BME280;21420;52.196;21.416;2024-03-02T01:03:55;99997.58;;;5.88;71.21
35307;BME280;21420;52.196;21.416;2024-03-02T01:06:23;99996.61;;;5.86;71.20
35307;BME280;21420;52.196;21.416;2024-03-02T01:08:50;99996.22;;;5.84;71.18
35307;BME280;21420;52.196;21.416;2024-03-02T01:11:19;99990.75;;;5.83;71.35
35307;BME280;21420;52.196;21.416;2024-03-02T01:13:50;99989.17;;;5.83;71.27
35307;BME280;21420;52.196;21.416;2024-03-02T01:16:18;99982.21;;;5.81;71.28
35307;BME280;21420;52.196;21.416;2024-03-02T01:18:45;99977.64;;;5.80;71.30
35307;BME280;21420;52.196;21.416;2024-03-02T01:21:12;99974.45;;;5.79;71.31
35307;BME280;21420;52.196;21.416;2024-03-02T01:23:39;99971.61;;;5.77;71.43
35307;BME280;21420;52.196;21.416;2024-03-02T01:26:06;99968.92;;;5.76;71.38
35307;BME280;21420;52.196;21.416;2024-03-02T01:28:33;99968.91;;;5.77;71.29
35307;BME280;21420;52.196;21.416;2024-03-02T01:31:00;99967.51;;;5.76;71.42
35307;BME280;21420;52.196;21.416;2024-03-02T01:33:28;99966.65;;;5.78;71.44
35307;BME280;21420;52.196;21.416;2024-03-02T01:35:55;99964.11;;;5.79;71.49
35307;BME280;21420;52.196;21.416;2024-03-02T01:38:22;99961.71;;;5.80;71.45
35307;BME280;21420;52.196;21.416;2024-03-02T01:40:49;99962.27;;;5.80;71.57
35307;BME280;21420;52.196;21.416;2024-03-02T01:43:15;99962.80;;;5.80;71.57
35307;BME280;21420;52.196;21.416;2024-03-02T01:45:42;99963.76;;;5.79;71.37
35307;BME280;21420;52.196;21.416;2024-03-02T01:48:09;99966.79;;;5.77;71.42
35307;BME280;21420;52.196;21.416;2024-03-02T01:50:36;99973.45;;;5.76;71.50
35307;BME280;21420;52.196;21.416;2024-03-02T01:53:03;99975.21;;;5.75;71.47
35307;BME280;21420;52.196;21.416;2024-03-02T01:55:30;99969.11;;;5.74;71.43
35307;BME280;21420;52.196;21.416;2024-03-02T01:57:58;99965.45;;;5.72;71.39
35307;BME280;21420;52.196;21.416;2024-03-02T02:00:26;99962.85;;;5.72;71.42
35307;BME280;21420;52.196;21.416;2024-03-02T02:02:54;99965.34;;;5.70;71.37
35307;BME280;21420;52.196;21.416;2024-03-02T02:05:22;99959.68;;;5.69;71.46
35307;BME280;21420;52.196;21.416;2024-03-02T02:07:49;99961.50;;;5.68;71.60
35307;BME280;21420;52.196;21.416;2024-03-02T02:10:16;99961.37;;;5.67;71.58
35307;BME280;21420;52.196;21.416;2024-03-02T02:12:43;99955.29;;;5.64;71.53
35307;BME280;21420;52.196;21.416;2024-03-02T02:15:24;99953.33;;;5.62;71.56
35307;BME280;21420;52.196;21.416;2024-03-02T02:17:51;99950.92;;;5.61;71.70
35307;BME280;21420;52.196;21.416;2024-03-02T02:20:18;99956.03;;;5.61;71.64
35307;BME280;21420;52.196;21.416;2024-03-02T02:23:12;99953.63;;;5.59;71.55
35307;BME280;21420;52.196;21.416;2024-03-02T02:25:40;99948.37;;;5.57;71.64
35307;BME280;21420;52.196;21.416;2024-03-02T02:28:06;99954.22;;;5.55;71.67
35307;BME280;21420;52.196;21.416;2024-03-02T02:30:33;99952.01;;;5.55;71.71
35307;BME280;21420;52.196;21.416;2024-03-02T02:33:00;99953.70;;;5.54;71.71
35307;BME280;21420;52.196;21.416;2024-03-02T02:35:27;99951.53;;;5.53;71.55
35307;BME280;21420;52.196;21.416;2024-03-02T02:37:55;99946.65;;;5.50;71.55
35307;BME280;21420;52.196;21.416;2024-03-02T02:40:23;99947.44;;;5.47;71.65
35307;BME280;21420;52.196;21.416;2024-03-02T02:42:50;99939.21;;;5.44;71.67
35307;BME280;21420;52.196;21.416;2024-03-02T02:45:19;99935.18;;;5.42;71.74
35307;BME280;21420;52.196;21.416;2024-03-02T02:47:46;99941.42;;;5.40;71.75
35307;BME280;21420;52.196;21.416;2024-03-02T02:50:13;99938.23;;;5.38;71.71
35307;BME280;21420;52.196;21.416;2024-03-02T02:52:41;99942.08;;;5.36;71.83
35307;BME280;21420;52.196;21.416;2024-03-02T02:55:10;99941.53;;;5.34;71.83
35307;BME280;21420;52.196;21.416;2024-03-02T02:57:39;99938.52;;;5.33;71.86
35307;BME280;21420;52.196;21.416;2024-03-02T03:00:12;99941.60;;;5.31;71.95
35307;BME280;21420;52.196;21.416;2024-03-02T03:02:48;99941.73;;;5.29;71.85
35307;BME280;21420;52.196;21.416;2024-03-02T03:05:18;99944.59;;;5.27;71.78
35307;BME280;21420;52.196;21.416;2024-03-02T03:07:45;99940.52;;;5.25;71.89
35307;BME280;21420;52.196;21.416;2024-03-02T03:10:12;99937.16;;;5.25;71.87
35307;BME280;21420;52.196;21.416;2024-03-02T03:12:41;99933.39;;;5.24;71.92
35307;BME280;21420;52.196;21.416;2024-03-02T03:15:10;99933.32;;;5.22;71.99
35307;BME280;21420;52.196;21.416;2024-03-02T03:18:06;99929.85;;;5.19;72.01
35307;BME280;21420;52.196;21.416;2024-03-02T03:20:34;99930.52;;;5.16;71.91
35307;BME280;21420;52.196;21.416;2024-03-02T03:23:00;99928.73;;;5.14;72.01
35307;BME280;21420;52.196;21.416;2024-03-02T03:25:27;99928.98;;;5.13;72.11
35307;BME280;21420;52.196;21.416;2024-03-02T03:27:54;99918.79;;;5.12;71.90
35307;BME280;21420;52.196;21.416;2024-03-02T03:30:21;99915.39;;;5.11;71.95
35307;BME280;21420;52.196;21.416;2024-03-02T03:32:48;99913.04;;;5.10;72.08
35307;BME280;21420;52.196;21.416;2024-03-02T03:35:14;99913.77;;;5.10;72.09
35307;BME280;21420;52.196;21.416;2024-03-02T03:37:42;99914.12;;;5.09;72.04
35307;BME280;21420;52.196;21.416;2024-03-02T03:40:09;99912.58;;;5.07;72.11
35307;BME280;21420;52.196;21.416;2024-03-02T03:42:40;99917.93;;;5.08;72.21
35307;BME280;21420;52.196;21.416;2024-03-02T03:45:07;99919.20;;;5.07;72.06
35307;BME280;21420;52.196;21.416;2024-03-02T03:47:34;99922.11;;;5.06;72.10
35307;BME280;21420;52.196;21.416;2024-03-02T03:50:01;99926.37;;;5.04;72.17
35307;BME280;21420;52.196;21.416;2024-03-02T03:52:33;99924.95;;;5.02;72.01
35307;BME280;21420;52.196;21.416;2024-03-02T03:55:00;99922.84;;;5.02;72.12
35307;BME280;21420;52.196;21.416;2024-03-02T03:57:27;99921.46;;;5.01;72.16
35307;BME280;21420;52.196;21.416;2024-03-02T03:59:54;99922.65;;;5.01;72.20
35307;BME280;21420;52.196;21.416;2024-03-02T04:02:20;99918.89;;;5.00;72.22
35307;BME280;21420;52.196;21.416;2024-03-02T04:04:47;99923.92;;;5.00;72.19
35307;BME280;21420;52.196;21.416;2024-03-02T04:07:14;99928.81;;;5.00;72.27
35307;BME280;21420;52.196;21.416;2024-03-02T04:09:40;99927.66;;;5.00;72.21
35307;BME280;21420;52.196;21.416;2024-03-02T04:12:07;99924.58;;;4.99;72.17
35307;BME280;21420;52.196;21.416;2024-03-02T04:14:34;99925.73;;;4.99;72.28
35307;BME280;21420;52.196;21.416;2024-03-02T04:17:00;99923.06;;;5.00;72.29
35307;BME280;21420;52.196;21.416;2024-03-02T04:19:27;99924.56;;;5.00;72.33
35307;BME280;21420;52.196;21.416;2024-03-02T04:21:54;99931.77;;;5.02;72.36
35307;BME280;21420;52.196;21.416;2024-03-02T04:24:21;99930.76;;;5.01;72.33
35307;BME280;21420;52.196;21.416;2024-03-02T04:26:47;99937.17;;;5.05;72.35
35307;BME280;21420;52.196;21.416;2024-03-02T04:29:14;99929.59;;;5.07;72.30
35307;BME280;21420;52.196;21.416;2024-03-02T04:31:40;99933.61;;;5.08;72.37
35307;BME280;21420;52.196;21.416;2024-03-02T04:34:07;99933.85;;;5.09;72.40
35307;BME280;21420;52.196;21.416;2024-03-02T04:36:34;99935.38;;;5.11;72.41
35307;BME280;21420;52.196;21.416;2024-03-02T04:39:01;99934.47;;;5.13;72.37
35307;BME280;21420;52.196;21.416;2024-03-02T04:41:28;99920.75;;;5.12;72.46
35307;BME280;21420;52.196;21.416;2024-03-02T04:43:54;99920.56;;;5.15;72.50
35307;BME280;21420;52.196;21.416;2024-03-02T04:46:21;99920.60;;;5.16;72.50
35307;BME280;21420;52.196;21.416;2024-03-02T04:48:48;99921.09;;;5.16;72.59
35307;BME280;21420;52.196;21.416;2024-03-02T04:51:21;99919.40;;;5.16;72.47
35307;BME280;21420;52.196;21.416;2024-03-02T04:53:48;99916.17;;;5.17;72.47
35307;BME280;21420;52.196;21.416;2024-03-02T04:56:15;99908.55;;;5.18;72.55
35307;BME280;21420;52.196;21.416;2024-03-02T04:59:06;99908.27;;;5.19;72.65
35307;BME280;21420;52.196;21.416;2024-03-02T05:01:33;99911.88;;;5.20;72.58
35307;BME280;21420;52.196;21.416;2024-03-02T05:04:00;99909.18;;;5.20;72.60
35307;BME280;21420;52.196;21.416;2024-03-02T05:06:27;99911.58;;;5.20;72.69
35307;BME280;21420;52.196;21.416;2024-03-02T05:08:54;99918.39;;;5.19;72.62
35307;BME280;21420;52.196;21.416;2024-03-02T05:11:20;99927.65;;;5.18;72.53
35307;BME280;21420;52.196;21.416;2024-03-02T05:14:06;99923.06;;;5.17;72.51
35307;BME280;21420;52.196;21.416;2024-03-02T05:16:34;99924.95;;;5.17;72.57
35307;BME280;21420;52.196;21.416;2024-03-02T05:19:02;99926.46;;;5.18;72.67
35307;BME280;21420;52.196;21.416;2024-03-02T05:21:29;99934.67;;;5.19;72.73
35307;BME280;21420;52.196;21.416;2024-03-02T05:23:55;99942.95;;;5.21;72.71
35307;BME280;21420;52.196;21.416;2024-03-02T05:26:23;99938.38;;;5.21;72.68
35307;BME280;21420;52.196;21.416;2024-03-02T05:28:49;99935.61;;;5.21;72.69
35307;BME280;21420;52.196;21.416;2024-03-02T05:31:16;99943.98;;;5.23;72.70
35307;BME280;21420;52.196;21.416;2024-03-02T05:33:43;99940.32;;;5.24;72.64
35307;BME280;21420;52.196;21.416;2024-03-02T05:36:10;99934.35;;;5.26;72.82
35307;BME280;21420;52.196;21.416;2024-03-02T05:38:37;99936.66;;;5.27;72.74
35307;BME280;21420;52.196;21.416;2024-03-02T05:41:04;99943.98;;;5.27;72.70
35307;BME280;21420;52.196;21.416;2024-03-02T05:43:31;99939.55;;;5.29;72.81
35307;BME280;21420;52.196;21.416;2024-03-02T05:45:58;99944.04;;;5.31;72.80
35307;BME280;21420;52.196;21.416;2024-03-02T05:48:24;99948.92;;;5.33;72.79
35307;BME280;21420;52.196;21.416;2024-03-02T05:50:51;99954.05;;;5.35;72.89
35307;BME280;21420;52.196;21.416;2024-03-02T05:53:18;99947.41;;;5.37;72.86
35307;BME280;21420;52.196;21.416;2024-03-02T05:55:44;99945.52;;;5.39;72.89
35307;BME280;21420;52.196;21.416;2024-03-02T05:58:11;99954.00;;;5.43;73.02
35307;BME280;21420;52.196;21.416;2024-03-02T06:00:59;99969.48;;;5.46;72.88
35307;BME280;21420;52.196;21.416;2024-03-02T06:03:26;99966.87;;;5.48;72.80
35307;BME280;21420;52.196;21.416;2024-03-02T06:05:52;99966.52;;;5.50;72.85
35307;BME280;21420;52.196;21.416;2024-03-02T06:08:19;99973.93;;;5.54;73.01
35307;BME280;21420;52.196;21.416;2024-03-02T06:10:46;99981.52;;;5.56;73.06
35307;BME280;21420;52.196;21.416;2024-03-02T06:13:13;99976.55;;;5.61;73.06
35307;BME280;21420;52.196;21.416;2024-03-02T06:15:40;99988.25;;;5.67;73.07
35307;BME280;21420;52.196;21.416;2024-03-02T06:18:06;99985.64;;;5.69;73.00
35307;BME280;21420;52.196;21.416;2024-03-02T06:20:34;99987.13;;;5.73;72.95
35307;BME280;21420;52.196;21.416;2024-03-02T06:23:03;99988.95;;;5.77;73.15
35307;BME280;21420;52.196;21.416;2024-03-02T06:25:30;99988.85;;;5.79;72.92
35307;BME280;21420;52.196;21.416;2024-03-02T06:27:57;99993.77;;;5.82;72.93
35307;BME280;21420;52.196;21.416;2024-03-02T06:30:24;99995.23;;;5.84;72.93
35307;BME280;21420;52.196;21.416;2024-03-02T06:32:51;99992.33;;;5.87;73.05
35307;BME280;21420;52.196;21.416;2024-03-02T06:35:17;99993.48;;;5.89;73.02
35307;BME280;21420;52.196;21.416;2024-03-02T06:37:44;99992.30;;;5.93;73.08
35307;BME280;21420;52.196;21.416;2024-03-02T06:40:11;100001.09;;;5.98;73.00
35307;BME280;21420;52.196;21.416;2024-03-02T06:42:37;99998.41;;;6.00;72.86
35307;BME280;21420;52.196;21.416;2024-03-02T06:45:04;100006.73;;;6.02;72.79
35307;BME280;21420;52.196;21.416;2024-03-02T06:47:31;99998.37;;;6.02;72.86
35307;BME280;21420;52.196;21.416;2024-03-02T06:49:58;99997.86;;;6.04;72.91
35307;BME280;21420;52.196;21.416;2024-03-02T06:52:25;100000.98;;;6.06;72.73
35307;BME280;21420;52.196;21.416;2024-03-02T06:54:52;99999.30;;;6.08;72.71
35307;BME280;21420;52.196;21.416;2024-03-02T06:57:19;99996.84;;;6.11;72.70
35307;BME280;21420;52.196;21.416;2024-03-02T06:59:47;99994.53;;;6.13;72.76
35307;BME280;21420;52.196;21.416;2024-03-02T07:02:16;99993.27;;;6.17;72.83
35307;BME280;21420;52.196;21.416;2024-03-02T07:04:43;99992.39;;;6.20;72.78
35307;BME280;21420;52.196;21.416;2024-03-02T07:07:11;99994.89;;;6.23;72.84
35307;BME280;21420;52.196;21.416;2024-03-02T07:09:38;99994.44;;;6.27;72.82
35307;BME280;21420;52.196;21.416;2024-03-02T07:12:05;99997.12;;;6.31;72.72
35307;BME280;21420;52.196;21.416;2024-03-02T07:14:32;99994.57;;;6.37;72.82
35307;BME280;21420;52.196;21.416;2024-03-02T07:17:17;100000.38;;;6.44;72.89
35307;BME280;21420;52.196;21.416;2024-03-02T07:19:44;100005.92;;;6.50;72.91
35307;BME280;21420;52.196;21.416;2024-03-02T07:22:10;100010.54;;;6.54;72.92
35307;BME280;21420;52.196;21.416;2024-03-02T07:24:42;100007.92;;;6.60;72.97
35307;BME280;21420;52.196;21.416;2024-03-02T07:27:09;100009.27;;;6.65;72.82
35307;BME280;21420;52.196;21.416;2024-03-02T07:29:36;100012.58;;;6.70;72.94
35307;BME280;21420;52.196;21.416;2024-03-02T07:32:04;100009.95;;;6.73;72.72
35307;BME280;21420;52.196;21.416;2024-03-02T07:34:31;100006.21;;;6.80;72.91
35307;BME280;21420;52.196;21.416;2024-03-02T07:36:57;100008.81;;;6.86;72.96
35307;BME280;21420;52.196;21.416;2024-03-02T07:39:25;100014.04;;;6.88;72.79
35307;BME280;21420;52.196;21.416;2024-03-02T07:41:52;100013.48;;;6.88;72.74
35307;BME280;21420;52.196;21.416;2024-03-02T07:44:19;100014.35;;;6.93;72.85
35307;BME280;21420;52.196;21.416;2024-03-02T07:46:46;100015.83;;;6.98;72.91
35307;BME280;21420;52.196;21.416;2024-03-02T07:49:13;100019.25;;;7.04;72.88
35307;BME280;21420;52.196;21.416;2024-03-02T07:51:43;100018.41;;;7.09;72.88
35307;BME280;21420;52.196;21.416;2024-03-02T07:54:09;100013.67;;;7.10;72.78
35307;BME280;21420;52.196;21.416;2024-03-02T07:56:36;100016.59;;;7.14;72.92
35307;BME280;21420;52.196;21.416;2024-03-02T07:59:03;100016.96;;;7.19;72.88
35307;BME280;21420;52.196;21.416;2024-03-02T08:01:31;100013.17;;;7.23;72.79
35307;BME280;21420;52.196;21.416;2024-03-02T08:04:00;100022.86;;;7.27;72.88
35307;BME280;21420;52.196;21.416;2024-03-02T08:06:27;100030.19;;;7.31;72.84
35307;BME280;21420;52.196;21.416;2024-03-02T08:08:55;100035.29;;;7.30;72.53
35307;BME280;21420;52.196;21.416;2024-03-02T08:11:22;100030.09;;;7.24;72.51
35307;BME280;21420;52.196;21.416;2024-03-02T08:13:50;100032.98;;;7.26;72.58
35307;BME280;21420;52.196;21.416;2024-03-02T08:16:18;100038.10;;;7.29;72.60
35307;BME280;21420;52.196;21.416;2024-03-02T08:18:47;100039.20;;;7.29;72.50
35307;BME280;21420;52.196;21.416;2024-03-02T08:21:15;100036.08;;;7.29;72.38
35307;BME280;21420;52.196;21.416;2024-03-02T08:23:42;100031.38;;;7.32;72.42
35307;BME280;21420;52.196;21.416;2024-03-02T08:26:11;100031.20;;;7.35;72.45
35307;BME280;21420;52.196;21.416;2024-03-02T08:28:38;100028.11;;;7.39;72.46
35307;BME280;21420;52.196;21.416;2024-03-02T08:31:07;100028.52;;;7.43;72.39
35307;BME280;21420;52.196;21.416;2024-03-02T08:33:35;100026.86;;;7.46;72.43
35307;BME280;21420;52.196;21.416;2024-03-02T08:36:05;100028.33;;;7.51;72.40
35307;BME280;21420;52.196;21.416;2024-03-02T08:38:32;100023.10;;;7.57;72.65
35307;BME280;21420;52.196;21.416;2024-03-02T08:40:59;100026.57;;;7.67;72.53
35307;BME280;21420;52.196;21.416;2024-03-02T08:43:26;100024.35;;;7.81;72.54
35307;BME280;21420;52.196;21.416;2024-03-02T08:45:52;100023.54;;;7.91;72.76
35307;BME280;21420;52.196;21.416;2024-03-02T08:48:19;100026.73;;;7.97;72.79
35307;BME280;21420;52.196;21.416;2024-03-02T08:50:47;100029.45;;;7.98;72.68
35307;BME280;21420;52.196;21.416;2024-03-02T08:53:14;100030.17;;;8.03;72.56
35307;BME280;21420;52.196;21.416;2024-03-02T08:55:46;100028.02;;;8.09;72.76
35307;BME280;21420;52.196;21.416;2024-03-02T08:58:12;100036.12;;;8.15;72.51
35307;BME280;21420;52.196;21.416;2024-03-02T09:00:40;100036.52;;;8.17;72.44
35307;BME280;21420;52.196;21.416;2024-03-02T09:03:07;100040.11;;;8.19;72.36
35307;BME280;21420;52.196;21.416;2024-03-02T09:05:34;100041.63;;;8.21;72.37
35307;BME280;21420;52.196;21.416;2024-03-02T09:08:01;100041.43;;;8.23;72.42
35307;BME280;21420;52.196;21.416;2024-03-02T09:10:30;100043.16;;;8.26;72.41
35307;BME280;21420;52.196;21.416;2024-03-02T09:12:56;100044.73;;;8.28;72.38
35307;BME280;21420;52.196;21.416;2024-03-02T09:15:23;100046.66;;;8.31;72.41
35307;BME280;21420;52.196;21.416;2024-03-02T09:17:50;100046.88;;;8.35;72.48
35307;BME280;21420;52.196;21.416;2024-03-02T09:20:17;100044.26;;;8.39;72.29
35307;BME280;21420;52.196;21.416;2024-03-02T09:22:43;100042.84;;;8.41;72.15
35307;BME280;21420;52.196;21.416;2024-03-02T09:25:10;100038.77;;;8.42;72.39
35307;BME280;21420;52.196;21.416;2024-03-02T09:27:37;100041.06;;;8.48;72.41
35307;BME280;21420;52.196;21.416;2024-03-02T09:30:07;100048.08;;;8.60;72.56
35307;BME280;21420;52.196;21.416;2024-03-02T09:32:34;100043.80;;;8.65;72.34
35307;BME280;21420;52.196;21.416;2024-03-02T09:35:01;100047.23;;;8.65;72.20
35307;BME280;21420;52.196;21.416;2024-03-02T09:37:28;100049.29;;;8.73;72.28
35307;BME280;21420;52.196;21.416;2024-03-02T09:39:55;100047.12;;;8.80;72.15
35307;BME280;21420;52.196;21.416;2024-03-02T09:42:22;100045.21;;;8.86;72.20
35307;BME280;21420;52.196;21.416;2024-03-02T09:44:50;100040.09;;;8.92;72.30
35307;BME280;21420;52.196;21.416;2024-03-02T09:47:18;100046.67;;;9.06;72.35
35307;BME280;21420;52.196;21.416;2024-03-02T09:49:45;100044.45;;;9.07;72.15
35307;BME280;21420;52.196;21.416;2024-03-02T09:52:12;100045.33;;;9.09;72.05
35307;BME280;21420;52.196;21.416;2024-03-02T09:54:40;100045.79;;;9.15;72.00
35307;BME280;21420;52.196;21.416;2024-03-02T09:57:06;100044.52;;;9.22;72.22
35307;BME280;21420;52.196;21.416;2024-03-02T09:59:33;100042.38;;;9.30;72.18
35307;BME280;21420;52.196;21.416;2024-03-02T10:02:02;100044.81;;;9.41;72.25
35307;BME280;21420;52.196;21.416;2024-03-02T10:04:30;100042.41;;;9.48;72.13
35307;BME280;21420;52.196;21.416;2024-03-02T10:07:15;100040.98;;;9.56;72.10
35307;BME280;21420;52.196;21.416;2024-03-02T10:09:46;100040.05;;;9.58;72.00
35307;BME280;21420;52.196;21.416;2024-03-02T10:12:15;100039.35;;;9.56;71.98
35307;BME280;21420;52.196;21.416;2024-03-02T10:14:42;100037.69;;;9.51;71.67
35307;BME280;21420;52.196;21.416;2024-03-02T10:17:11;100035.75;;;9.52;71.78
35307;BME280;21420;52.196;21.416;2024-03-02T10:19:39;100032.11;;;9.57;71.81
35307;BME280;21420;52.196;21.416;2024-03-02T10:22:08;100029.12;;;9.63;71.90
35307;BME280;21420;52.196;21.416;2024-03-02T10:24:42;100028.65;;;9.70;71.78
35307;BME280;21420;52.196;21.416;2024-03-02T10:27:26;100025.92;;;9.75;72.07
35307;BME280;21420;52.196;21.416;2024-03-02T10:29:53;100024.83;;;9.80;72.04
35307;BME280;21420;52.196;21.416;2024-03-02T10:32:22;100027.01;;;9.82;71.90
35307;BME280;21420;52.196;21.416;2024-03-02T10:34:50;100021.23;;;9.84;71.84
35307;BME280;21420;52.196;21.416;2024-03-02T10:37:17;100019.81;;;9.91;72.03
35307;BME280;21420;52.196;21.416;2024-03-02T10:39:46;100016.69;;;9.95;71.86
35307;BME280;21420;52.196;21.416;2024-03-02T10:42:14;100019.84;;;9.98;71.74
35307;BME280;21420;52.196;21.416;2024-03-02T10:44:42;100014.12;;;9.98;71.53
35307;BME280;21420;52.196;21.416;2024-03-02T10:47:12;100011.83;;;10.02;71.52
35307;BME280;21420;52.196;21.416;2024-03-02T10:49:41;100005.61;;;10.13;71.84
35307;BME280;21420;52.196;21.416;2024-03-02T10:52:09;100002.65;;;10.35;72.04
35307;BME280;21420;52.196;21.416;2024-03-02T10:54:36;100003.05;;;10.47;72.04
35307;BME280;21420;52.196;21.416;2024-03-02T10:57:04;100001.84;;;10.51;71.91
35307;BME280;21420;52.196;21.416;2024-03-02T10:59:35;99997.98;;;10.55;71.69
35307;BME280;21420;52.196;21.416;2024-03-02T11:02:03;100001.60;;;10.61;71.48
35307;BME280;21420;52.196;21.416;2024-03-02T11:04:32;100004.04;;;10.64;71.36
35307;BME280;21420;52.196;21.416;2024-03-02T11:07:06;100008.38;;;10.66;71.41
35307;BME280;21420;52.196;21.416;2024-03-02T11:09:37;100006.63;;;10.68;71.45
35307;BME280;21420;52.196;21.416;2024-03-02T11:12:29;100005.44;;;10.65;71.25
35307;BME280;21420;52.196;21.416;2024-03-02T11:14:58;100005.59;;;10.57;70.92
35307;BME280;21420;52.196;21.416;2024-03-02T11:17:25;100003.88;;;10.57;71.00
35307;BME280;21420;52.196;21.416;2024-03-02T11:19:53;100002.05;;;10.66;71.28
35307;BME280;21420;52.196;21.416;2024-03-02T11:22:20;99994.75;;;10.81;71.28
35307;BME280;21420;52.196;21.416;2024-03-02T11:24:51;99990.46;;;10.98;71.43
35307;BME280;21420;52.196;21.416;2024-03-02T11:33:04;99986.66;;;11.34;71.38
35307;BME280;21420;52.196;21.416;2024-03-02T11:35:36;99988.39;;;11.42;71.12
35307;BME280;21420;52.196;21.416;2024-03-02T11:38:07;99990.25;;;11.38;70.75
35307;BME280;21420;52.196;21.416;2024-03-02T11:40:33;99986.13;;;11.42;70.87
35307;BME280;21420;52.196;21.416;2024-03-02T11:43:00;99983.19;;;11.53;71.07
35307;BME280;21420;52.196;21.416;2024-03-02T11:45:29;99981.77;;;11.62;70.93
35307;BME280;21420;52.196;21.416;2024-03-02T11:47:59;99975.76;;;11.69;71.03
35307;BME280;21420;52.196;21.416;2024-03-02T11:53:24;99972.11;;;11.70;70.68
35307;BME280;21420;52.196;21.416;2024-03-02T11:56:00;99967.27;;;11.64;70.70
35307;BME280;21420;52.196;21.416;2024-03-02T11:58:31;99962.90;;;11.56;70.64
35307;BME280;21420;52.196;21.416;2024-03-02T12:01:01;99963.64;;;11.51;70.55
35307;BME280;21420;52.196;21.416;2024-03-02T12:03:33;99961.21;;;11.52;70.74
35307;BME280;21420;52.196;21.416;2024-03-02T12:06:05;99961.47;;;11.52;70.63
35307;BME280;21420;52.196;21.416;2024-03-02T12:08:33;99972.10;;;11.49;70.57
35307;BME280;21420;52.196;21.416;2024-03-02T12:11:03;99981.40;;;11.47;70.67
35307;BME280;21420;52.196;21.416;2024-03-02T12:13:34;99984.27;;;11.43;70.43
35307;BME280;21420;52.196;21.416;2024-03-02T12:16:03;99984.27;;;11.31;70.29
35307;BME280;21420;52.196;21.416;2024-03-02T12:18:32;99986.06;;;11.29;70.41
35307;BME280;21420;52.196;21.416;2024-03-02T12:21:02;99985.20;;;11.31;70.38
35307;BME280;21420;52.196;21.416;2024-03-02T12:23:34;99990.70;;;11.35;70.31
35307;BME280;21420;52.196;21.416;2024-03-02T12:26:03;99992.05;;;11.42;70.53
35307;BME280;21420;52.196;21.416;2024-03-02T12:28:33;99992.62;;;11.51;70.56
35307;BME280;21420;52.196;21.416;2024-03-02T12:31:03;99984.66;;;11.52;70.47
35307;BME280;21420;52.196;21.416;2024-03-02T12:33:33;99985.36;;;11.47;70.09
35307;BME280;21420;52.196;21.416;2024-03-02T12:36:02;99987.05;;;11.45;70.25
35307;BME280;21420;52.196;21.416;2024-03-02T12:38:31;99988.34;;;11.40;70.13
35307;BME280;21420;52.196;21.416;2024-03-02T12:41:00;99988.16;;;11.40;70.31
35307;BME280;21420;52.196;21.416;2024-03-02T12:43:31;99990.92;;;11.40;70.28
35307;BME280;21420;52.196;21.416;2024-03-02T12:52:58;99989.73;;;11.12;69.85
35307;BME280;21420;52.196;21.416;2024-03-02T12:55:25;99987.29;;;11.04;69.87
35307;BME280;21420;52.196;21.416;2024-03-02T12:57:52;99987.72;;;11.03;70.05
35307;BME280;21420;52.196;21.416;2024-03-02T13:00:20;99986.45;;;10.95;69.92
35307;BME280;21420;52.196;21.416;2024-03-02T13:02:50;99986.08;;;10.82;69.84
35307;BME280;21420;52.196;21.416;2024-03-02T13:05:19;99993.11;;;10.71;69.84
35307;BME280;21420;52.196;21.416;2024-03-02T13:07:48;99992.98;;;10.64;69.98
35307;BME280;21420;52.196;21.416;2024-03-02T13:10:16;99990.23;;;10.58;69.95
35307;BME280;21420;52.196;21.416;2024-03-02T13:12:45;99991.34;;;10.54;69.88
35307;BME280;21420;52.196;21.416;2024-03-02T13:15:12;99991.77;;;10.47;69.89
35307;BME280;21420;52.196;21.416;2024-03-02T13:17:46;99992.45;;;10.34;69.76